Time;durP1;ratioP1;P1;durP2;ratioP2;P2;SDS_P1;SDS_P2;PMS_P1;PMS_P2;Temp;Humidity;BMP_temperature;BMP_pressure;BME280_temperature;BME280_humidity;BME280_pressure;Samples;Min_cycle;Max_cycle;Signal;HPM_P1;HPM_P2
2021/10/16 00:02:07;;;;;;;4.75;3.78;;;5.80;99.90;;;;;;6195264;28;20041;-78
2021/10/16 00:05:08;;;;;;;4.70;3.60;;;;;;;;;;6194831;28;20089;-80
2021/10/16 00:08:14;;;;;;;4.47;3.80;;;5.30;99.90;;;;;;6194616;28;20041;-83
2021/10/16 00:11:15;;;;;;;7.10;3.85;;;5.60;99.90;;;;;;6178463;28;20164;-81
2021/10/16 00:14:16;;;;;;;7.15;3.67;;;;;;;;;;6194740;28;20030;-78
2021/10/16 00:17:17;;;;;;;4.88;3.70;;;5.50;99.90;;;;;;6194466;28;20069;-78
2021/10/16 00:20:18;;;;;;;5.25;4.18;;;;;;;;;;6178612;28;20029;-78
2021/10/16 00:23:18;;;;;;;7.90;4.00;;;5.50;99.90;;;;;;6196072;28;20023;-78
2021/10/16 00:26:19;;;;;;;4.68;4.18;;;5.40;99.90;;;;;;6194481;28;20035;-81
2021/10/16 00:29:20;;;;;;;7.32;4.20;;;;;;;;;;6178113;28;20121;-82
2021/10/16 00:32:21;;;;;;;5.78;3.80;;;;;;;;;;6196146;28;20065;-79
2021/10/16 00:35:21;;;;;;;4.68;3.70;;;;;;;;;;6195395;28;20461;-79
2021/10/16 00:38:22;;;;;;;5.55;3.80;;;;;;;;;;6194192;28;20113;-80
2021/10/16 00:41:23;;;;;;;4.95;3.60;;;;;;;;;;6177857;28;20030;-82
2021/10/16 00:44:25;;;;;;;4.43;3.50;;;;;;;;;;6195065;28;20069;-78
2021/10/16 00:47:25;;;;;;;5.43;3.72;;;5.20;99.90;;;;;;6193298;28;20046;-78
2021/10/16 00:50:26;;;;;;;5.15;4.40;;;;;;;;;;6177907;28;20105;-78
2021/10/16 00:53:27;;;;;;;4.40;4.00;;;5.70;99.90;;;;;;6194097;28;20436;-78
2021/10/16 00:56:27;;;;;;;4.40;3.70;;;5.80;99.90;;;;;;6177317;28;20614;-78
2021/10/16 00:59:29;;;;;;;5.10;3.88;;;5.50;99.90;;;;;;6177449;28;20105;-79
2021/10/16 01:02:30;;;;;;;5.82;4.15;;;5.50;99.90;;;;;;6177289;28;20457;-82
2021/10/16 01:05:33;;;;;;;4.47;4.03;;;5.60;99.90;;;;;;6177160;28;20038;-82
2021/10/16 01:08:34;;;;;;;5.07;3.55;;;5.80;99.90;;;;;;6178004;28;20030;-79
2021/10/16 01:11:36;;;;;;;4.43;3.40;;;6.10;99.90;;;;;;6193666;28;20053;-80
2021/10/16 01:14:43;;;;;;;5.00;3.75;;;5.60;99.90;;;;;;6193505;28;20026;-78
2021/10/16 01:17:47;;;;;;;5.50;3.58;;;5.80;99.90;;;;;;6177243;28;20461;-78
2021/10/16 01:20:54;;;;;;;5.03;3.67;;;5.50;99.90;;;;;;6193289;28;20415;-79
2021/10/16 01:23:56;;;;;;;6.95;4.10;;;5.60;99.90;;;;;;6177573;28;20085;-78
2021/10/16 01:26:57;;;;;;;4.63;3.75;;;5.60;99.90;;;;;;6193522;28;20473;-81
2021/10/16 01:29:58;;;;;;;9.07;5.15;;;;;;;;;;6193501;28;20030;-78
2021/10/16 01:32:58;;;;;;;7.50;3.85;;;5.20;99.90;;;;;;6177183;28;20160;-78
2021/10/16 01:36:04;;;;;;;5.32;4.05;;;5.20;99.90;;;;;;6176937;28;20045;-79
2021/10/16 01:39:05;;;;;;;6.38;3.45;;;5.30;99.90;;;;;;6176676;28;20077;-78
2021/10/16 01:42:12;;;;;;;4.78;4.15;;;5.10;99.90;;;;;;6160927;28;20031;-79
2021/10/16 01:45:14;;;;;;;4.78;3.72;;;5.60;99.90;;;;;;6176743;28;20062;-83
2021/10/16 01:48:15;;;;;;;5.60;3.92;;;6.40;99.90;;;;;;6161006;28;20031;-78
2021/10/16 01:51:18;;;;;;;6.85;4.13;;;5.30;99.90;;;;;;6193476;28;20349;-78
2021/10/16 01:54:19;;;;;;;5.70;4.50;;;5.60;99.90;;;;;;6192924;28;20076;-78
2021/10/16 01:57:20;;;;;;;3.95;3.30;;;5.40;99.90;;;;;;6193480;28;20117;-78
2021/10/16 02:00:20;;;;;;;4.47;3.35;;;5.40;99.90;;;;;;6181286;28;20042;-80
2021/10/16 02:03:21;;;;;;;4.55;3.97;;;5.30;99.90;;;;;;6199480;28;20368;-79
2021/10/16 02:06:21;;;;;;;6.15;3.35;;;5.20;99.90;;;;;;6181430;28;20038;-80
2021/10/16 02:09:22;;;;;;;4.30;3.78;;;5.00;99.90;;;;;;6181106;28;20069;-81
2021/10/16 02:12:22;;;;;;;4.60;3.80;;;5.40;99.90;;;;;;6181300;28;20038;-78
2021/10/16 02:15:23;;;;;;;4.65;3.70;;;5.10;99.90;;;;;;6181019;28;20030;-80
2021/10/16 02:18:23;;;;;;;7.10;3.85;;;4.90;99.90;;;;;;6197273;28;20689;-79
2021/10/16 02:21:24;;;;;;;7.20;4.10;;;4.90;99.90;;;;;;6197794;28;20027;-78
2021/10/16 02:24:25;;;;;;;4.85;3.58;;;5.30;99.90;;;;;;6197162;28;20146;-78
2021/10/16 02:27:25;;;;;;;6.80;4.07;;;5.10;99.90;;;;;;6197050;28;20088;-78
2021/10/16 02:30:29;;;;;;;6.10;4.07;;;5.20;99.90;;;;;;6197190;28;20034;-79
2021/10/16 02:33:30;;;;;;;7.40;4.13;;;4.90;99.90;;;;;;6180885;28;20401;-80
2021/10/16 02:36:30;;;;;;;5.88;3.80;;;5.00;99.90;;;;;;6180673;28;20092;-78
2021/10/16 02:39:31;;;;;;;6.03;4.30;;;5.00;99.90;;;;;;6197489;28;20030;-79
2021/10/16 02:42:32;;;;;;;5.72;4.38;;;5.10;99.90;;;;;;6196951;28;20120;-81
2021/10/16 02:45:32;;;;;;;5.07;4.13;;;5.10;99.90;;;;;;6196935;28;20050;-78
2021/10/16 02:48:33;;;;;;;8.35;4.35;;;5.10;99.90;;;;;;6164040;28;20424;-79
2021/10/16 02:51:33;;;;;;;7.68;4.63;;;4.10;99.90;;;;;;6180688;28;20038;-80
2021/10/16 02:54:34;;;;;;;5.47;4.10;;;5.20;99.90;;;;;;6198031;28;20119;-79
2021/10/16 02:57:34;;;;;;;5.75;4.40;;;5.00;99.90;;;;;;6196449;28;20037;-78
2021/10/16 03:00:35;;;;;;;5.25;4.57;;;;;;;;;;6196523;28;20023;-79
2021/10/16 03:03:36;;;;;;;5.47;4.80;;;5.30;99.90;;;;;;6198046;28;20494;-81
2021/10/16 03:06:37;;;;;;;6.38;4.10;;;;;;;;;;6195901;28;20030;-82
2021/10/16 03:09:38;;;;;;;5.13;3.92;;;;;;;;;;6197138;28;20089;-78
2021/10/16 03:12:39;;;;;;;6.32;3.83;;;;;;;;;;6179770;28;20468;-81
2021/10/16 03:15:40;;;;;;;5.90;4.28;;;;;;;;;;6197244;28;20042;-80
2021/10/16 03:18:41;;;;;;;6.30;5.07;;;;;;;;;;6197942;28;20034;-78
2021/10/16 03:21:41;;;;;;;6.35;4.25;;;4.80;99.90;;;;;;6197397;28;20050;-78
2021/10/16 03:24:42;;;;;;;5.53;4.53;;;5.50;99.90;;;;;;6195948;28;20027;-78
2021/10/16 03:27:42;;;;;;;5.32;4.65;;;5.20;99.90;;;;;;6197509;28;20030;-80
2021/10/16 03:30:43;;;;;;;7.82;4.97;;;5.10;99.90;;;;;;6197738;28;20536;-79
2021/10/16 03:33:44;;;;;;;6.35;5.30;;;6.50;99.90;;;;;;6195586;28;20034;-78
2021/10/16 03:36:44;;;;;;;9.20;4.93;;;5.80;99.90;;;;;;6195758;28;20049;-78
2021/10/16 03:39:45;;;;;;;9.35;7.10;;;5.00;99.90;;;;;;6179435;28;21012;-81
2021/10/16 03:42:45;;;;;;;85.55;36.63;;;6.10;99.90;;;;;;6195436;28;20105;-80
2021/10/16 03:45:46;;;;;;;35.97;15.68;;;5.90;99.90;;;;;;6196483;28;20050;-78
2021/10/16 03:48:46;;;;;;;21.13;11.23;;;5.60;99.90;;;;;;6195992;28;20030;-83
2021/10/16 03:51:48;;;;;;;10.77;6.68;;;5.10;99.90;;;;;;6195569;28;20023;-83
2021/10/16 03:54:49;;;;;;;8.53;5.57;;;4.80;99.90;;;;;;6194985;28;20030;-79
2021/10/16 03:57:51;;;;;;;18.10;8.88;;;4.50;99.90;;;;;;6196926;28;20262;-78
2021/10/16 04:00:57;;;;;;;18.80;8.77;;;4.90;99.90;;;;;;6178651;28;20057;-78
2021/10/16 04:03:57;;;;;;;11.50;7.55;;;5.70;99.90;;;;;;6179739;28;20469;-82
2021/10/16 04:06:58;;;;;;;37.05;23.85;;;4.40;99.90;;;;;;6194761;28;20037;-78
2021/10/16 04:09:59;;;;;;;12.15;7.63;;;6.50;99.90;;;;;;6195185;28;20113;-78
2021/10/16 04:12:59;;;;;;;9.57;5.45;;;5.80;99.90;;;;;;6195403;28;20069;-78
2021/10/16 04:16:00;;;;;;;6.15;4.78;;;4.50;99.90;;;;;;6178281;28;20085;-81
2021/10/16 04:19:00;;;;;;;5.80;4.60;;;4.90;99.90;;;;;;6178537;28;20077;-78
2021/10/16 04:22:01;;;;;;;6.03;5.03;;;4.40;99.90;;;;;;6193500;28;20030;-83
2021/10/16 04:25:02;;;;;;;6.65;4.95;;;;;;;;;;6196249;28;20022;-78
2021/10/16 04:28:03;;;;;;;9.82;8.73;;;4.50;99.90;;;;;;6194679;28;20027;-78
2021/10/16 04:31:03;;;;;;;11.57;8.60;;;4.40;99.90;;;;;;6196279;28;20519;-77
2021/10/16 04:34:06;;;;;;;7.85;5.30;;;5.90;99.90;;;;;;6195544;28;20445;-78
2021/10/16 04:37:06;;;;;;;7.35;4.93;;;4.30;99.90;;;;;;6194233;28;20089;-77
2021/10/16 04:40:17;;;;;;;7.28;6.35;;;4.40;99.90;;;;;;6195875;28;20034;-77
2021/10/16 04:43:18;;;;;;;9.65;5.47;;;4.40;99.90;;;;;;6179413;28;20019;-77
2021/10/16 04:46:20;;;;;;;7.60;4.65;;;4.80;99.90;;;;;;6178020;28;20038;-77
2021/10/16 04:49:21;;;;;;;6.60;5.10;;;4.50;99.90;;;;;;6193297;28;20130;-79
2021/10/16 04:52:22;;;;;;;7.35;5.20;;;4.40;99.90;;;;;;6194483;28;20022;-79
2021/10/16 04:55:23;;;;;;;10.15;6.90;;;4.30;99.90;;;;;;6177436;28;20042;-78
2021/10/16 04:58:24;;;;;;;8.75;6.80;;;4.30;99.90;;;;;;6195318;28;20026;-81
2021/10/16 05:01:24;;;;;;;9.23;6.90;;;4.30;99.90;;;;;;6193490;28;20038;-80
2021/10/16 05:04:25;;;;;;;8.60;5.85;;;4.50;99.90;;;;;;6193829;28;20033;-80
2021/10/16 05:07:25;;;;;;;9.90;6.10;;;4.10;99.90;;;;;;6177139;28;20027;-77
2021/10/16 05:10:26;;;;;;;7.90;6.05;;;4.50;99.90;;;;;;6193407;28;20509;-81
2021/10/16 05:13:27;;;;;;;7.57;5.40;;;4.30;99.90;;;;;;6193471;28;20022;-79
2021/10/16 05:16:29;;;;;;;6.45;5.45;;;1.70;99.90;;;;;;6193906;28;20046;-79
2021/10/16 05:19:30;;;;;;;11.48;8.38;;;4.60;99.90;;;;;;6193440;28;20088;-78
2021/10/16 05:22:31;;;;;;;9.70;7.05;;;4.40;99.90;;;;;;6177698;28;20034;-78
2021/10/16 05:25:31;;;;;;;44.58;28.20;;;4.40;99.90;;;;;;6177104;28;20023;-78
2021/10/16 05:28:32;;;;;;;58.78;38.70;;;4.30;99.90;;;;;;6194419;28;20616;-80
2021/10/16 05:31:33;;;;;;;19.48;13.90;;;6.20;99.90;;;;;;6193590;28;20025;-78
2021/10/16 05:34:33;;;;;;;12.40;10.82;;;4.40;99.90;;;;;;6192963;28;20475;-78
2021/10/16 05:37:34;;;;;;;19.33;12.38;;;4.30;99.90;;;;;;6176899;28;20034;-78
2021/10/16 05:40:34;;;;;;;11.75;6.35;;;4.30;99.90;;;;;;6192934;28;20109;-82
2021/10/16 05:43:35;;;;;;;19.20;12.07;;;4.30;99.90;;;;;;6193084;28;20117;-81
2021/10/16 05:46:36;;;;;;;36.72;21.15;;;4.30;99.90;;;;;;6176971;28;20053;-83
2021/10/16 05:49:37;;;;;;;12.98;8.60;;;4.30;99.90;;;;;;6176724;28;20421;-82
2021/10/16 05:52:37;;;;;;;11.18;8.52;;;4.30;99.90;;;;;;6176766;28;20037;-78
2021/10/16 05:55:38;;;;;;;10.50;7.20;;;4.50;99.90;;;;;;6176550;28;20042;-81
2021/10/16 05:58:39;;;;;;;14.05;9.55;;;;;;;;;;6176885;28;20023;-79
2021/10/16 06:01:40;;;;;;;10.35;7.07;;;;;;;;;;6192885;28;21207;-79
2021/10/16 06:04:41;;;;;;;9.13;7.03;;;;;;;;;;6193100;28;20049;-79
2021/10/16 06:07:42;;;;;;;14.15;7.03;;;;;;;;;;6176685;28;20039;-80
2021/10/16 06:10:43;;;;;;;11.25;7.53;;;;;;;;;;6193797;28;20038;-78
2021/10/16 06:13:44;;;;;;;7.70;6.35;;;;;;;;;;6176094;28;20061;-79
2021/10/16 06:16:44;;;;;;;13.13;7.60;;;4.30;99.90;;;;;;6177310;28;20387;-81
2021/10/16 06:19:46;;;;;;;9.60;5.93;;;;;;;;;;6194121;28;20022;-81
2021/10/16 06:22:46;;;;;;;13.40;7.57;;;4.30;99.90;;;;;;6193430;28;20436;-79
2021/10/16 06:25:47;;;;;;;10.32;6.20;;;5.10;99.90;;;;;;6176371;28;20042;-78
2021/10/16 06:28:48;;;;;;;12.88;10.48;;;5.80;99.90;;;;;;6193005;28;20046;-79
2021/10/16 06:31:48;;;;;;;6.90;6.20;;;5.50;99.90;;;;;;6176719;28;20033;-80
2021/10/16 06:34:49;;;;;;;9.52;7.45;;;4.50;99.90;;;;;;6160112;28;20026;-80
2021/10/16 06:37:49;;;;;;;11.20;6.18;;;5.80;99.90;;;;;;6160306;28;20037;-85
2021/10/16 06:40:50;;;;;;;10.35;6.22;;;4.80;99.90;;;;;;6160419;28;20484;-82
2021/10/16 06:43:51;;;;;;;8.50;6.20;;;5.20;99.90;;;;;;6192186;28;20054;-79
2021/10/16 06:46:51;;;;;;;7.85;6.82;;;5.40;99.90;;;;;;6198181;28;20030;-83
2021/10/16 06:49:52;;;;;;;10.52;6.50;;;5.10;99.90;;;;;;6196982;28;20108;-79
2021/10/16 06:52:53;;;;;;;6.90;5.78;;;5.30;99.90;;;;;;6196870;28;20026;-82
2021/10/16 06:55:53;;;;;;;11.32;8.02;;;6.10;99.90;;;;;;6196147;28;20461;-82
2021/10/16 06:58:54;;;;;;;13.07;6.35;;;6.50;99.90;;;;;;6180428;28;20487;-80
2021/10/16 07:01:55;;;;;;;7.78;5.90;;;7.40;99.90;;;;;;6195774;28;20018;-81
2021/10/16 07:04:55;;;;;;;11.32;6.55;;;8.70;99.90;;;;;;6180447;28;20149;-82
2021/10/16 07:07:56;;;;;;;9.38;6.88;;;9.90;99.90;;;;;;6196704;28;20448;-80
2021/10/16 07:10:57;;;;;;;9.43;8.40;;;10.00;99.90;;;;;;6163713;28;20423;-83
2021/10/16 07:13:57;;;;;;;18.40;13.40;;;10.90;99.90;;;;;;6163967;28;20066;-80
2021/10/16 07:16:58;;;;;;;6.75;6.03;;;11.20;99.90;;;;;;6196620;28;20045;-83
2021/10/16 07:19:59;;;;;;;11.23;7.13;;;12.10;99.90;;;;;;6163536;28;20023;-84
2021/10/16 07:22:59;;;;;;;8.98;6.40;;;13.10;99.90;;;;;;6195530;28;20026;-88
2021/10/16 07:26:00;;;;;;;6.05;5.43;;;13.30;99.90;;;;;;6180271;28;20038;-83
2021/10/16 07:29:00;;;;;;;6.07;5.22;;;13.70;99.90;;;;;;6195698;28;20114;-84
2021/10/16 07:32:01;;;;;;;6.88;5.75;;;;;;;;;;6195922;28;20453;-84
2021/10/16 07:35:03;;;;;;;6.90;5.63;;;;;;;;;;6195821;28;20524;-84
2021/10/16 07:38:03;;;;;;;5.85;4.85;;;14.40;99.90;;;;;;6195651;28;20105;-88
2021/10/16 07:41:04;;;;;;;8.20;6.05;;;14.50;99.90;;;;;;6179507;28;20076;-82
2021/10/16 07:44:05;;;;;;;5.50;4.95;;;;;;;;;;6195400;28;20093;-87
2021/10/16 07:47:06;;;;;;;6.45;5.03;;;;;;;;;;6179187;28;20467;-85
2021/10/16 07:50:07;;;;;;;5.18;4.57;;;15.80;99.90;;;;;;6195235;28;20026;-83
2021/10/16 07:53:08;;;;;;;5.70;5.10;;;;;;;;;;6179617;28;20066;-85
2021/10/16 07:56:09;;;;;;;6.43;5.05;;;16.10;99.90;;;;;;6194791;28;20460;-83
2021/10/16 07:59:10;;;;;;;6.13;4.75;;;;;;;;;;6195584;28;20073;-85
2021/10/16 08:02:10;;;;;;;7.38;5.20;;;16.20;99.90;;;;;;6178900;28;20038;-86
2021/10/16 08:05:14;;;;;;;6.72;4.85;;;;;;;;;;6178854;28;20046;-84
2021/10/16 08:08:15;;;;;;;5.93;4.50;;;;;;;;;;6178841;28;20034;-84
2021/10/16 08:11:16;;;;;;;6.53;5.13;;;;;;;;;;6195054;28;20022;-85
2021/10/16 08:14:16;;;;;;;7.07;4.47;;;16.70;99.90;;;;;;6195546;28;20032;-85
2021/10/16 08:17:17;;;;;;;6.25;3.83;;;;;;;;;;6160444;28;20034;-84
2021/10/16 08:20:18;;;;;;;6.72;3.80;;;17.30;99.90;;;;;;6193943;28;20037;-83
2021/10/16 08:23:19;;;;;;;5.10;4.28;;;17.60;99.90;;;;;;6194393;28;20084;-84
2021/10/16 08:26:19;;;;;;;5.72;4.68;;;17.50;96.40;;;;;;6177989;28;20477;-85
2021/10/16 08:29:20;;;;;;;6.75;4.32;;;17.70;99.90;;;;;;6178878;28;20068;-84
2021/10/16 08:32:21;;;;;;;4.88;4.22;;;;;;;;;;6177981;28;20031;-81
2021/10/16 08:35:22;;;;;;;6.57;4.97;;;;;;;;;;6193860;28;20046;-87
2021/10/16 08:38:22;;;;;;;4.78;3.97;;;18.10;95.10;;;;;;6176646;28;20074;-82
2021/10/16 08:41:23;;;;;;;5.18;4.07;;;18.30;94.50;;;;;;6193999;28;20030;-83
2021/10/16 08:44:24;;;;;;;4.40;3.95;;;18.30;94.60;;;;;;6194388;28;20097;-83
2021/10/16 08:47:35;;;;;;;5.70;4.05;;;18.40;95.50;;;;;;6192705;28;20026;-83
2021/10/16 08:50:36;;;;;;;5.75;4.05;;;18.60;94.80;;;;;;6193745;28;20033;-86
2021/10/16 08:53:37;;;;;;;143.75;23.23;;;19.00;99.90;;;;;;6161272;28;20517;-84
2021/10/16 08:56:37;;;;;;;8.07;4.53;;;19.00;94.10;;;;;;6176861;28;20026;-84
2021/10/16 08:59:38;;;;;;;8.77;6.13;;;;;;;;;;6160607;28;20100;-85
2021/10/16 09:02:39;;;;;;;5.95;4.28;;;19.60;90.00;;;;;;6177345;28;20021;-84
2021/10/16 09:05:40;;;;;;;6.63;4.88;;;20.00;88.80;;;;;;6192404;28;20054;-84
2021/10/16 09:08:52;;;;;;;34.80;9.35;;;20.20;88.10;;;;;;6191816;28;20047;-84
2021/10/16 09:11:55;;;;;;;6.40;5.18;;;20.40;85.10;;;;;;6192977;28;20023;-84
2021/10/16 09:14:56;;;;;;;6.78;4.90;;;20.60;84.00;;;;;;6191555;28;20117;-85
2021/10/16 09:18:04;;;;;;;6.57;5.00;;;21.30;84.70;;;;;;6160134;28;20076;-84
2021/10/16 09:21:09;;;;;;;6.30;5.38;;;21.40;81.10;;;;;;6176108;28;20050;-85
2021/10/16 09:24:18;;;;;;;7.82;5.18;;;21.40;80.40;;;;;;6176540;28;20499;-84
2021/10/16 09:27:22;;;;;;;6.55;5.07;;;21.40;79.40;;;;;;6175559;28;20026;-84
2021/10/16 09:30:27;;;;;;;7.15;5.95;;;21.60;79.00;;;;;;6175674;28;20026;-84
2021/10/16 09:33:43;;;;;;;6.95;5.20;;;21.70;90.80;;;;;;6177597;28;20457;-88
2021/10/16 09:36:44;;;;;;;5.47;4.90;;;21.70;77.30;;;;;;6160614;28;21202;-86
2021/10/16 09:39:48;;;;;;;6.13;5.07;;;21.90;77.50;;;;;;6161762;28;20045;-86
2021/10/16 09:42:49;;;;;;;22.33;5.90;;;22.20;77.80;;;;;;6195201;28;20083;-86
2021/10/16 09:46:13;;;;;;;37.65;9.10;;;22.30;76.10;;;;;;6157936;28;20051;-88
2021/10/16 09:49:13;;;;;;;37.40;7.80;;;21.90;76.10;;;;;;6136609;28;20028;-88
2021/10/16 09:52:18;;;;;;;284.85;37.53;;;21.80;78.20;;;;;;6158203;28;20370;-85
2021/10/16 09:55:19;;;;;;;30.98;7.88;;;21.90;75.90;;;;;;6162937;28;20039;-86
2021/10/16 09:58:23;;;;;;;32.92;7.88;;;22.20;74.70;;;;;;6163524;28;20025;-85
2021/10/16 10:01:24;;;;;;;9.50;5.35;;;22.10;74.70;;;;;;6173021;28;20085;-87
2021/10/16 10:04:25;;;;;;;114.18;12.25;;;21.90;76.20;;;;;;6173773;28;20039;-84
2021/10/16 10:07:26;;;;;;;28.50;6.78;;;21.50;75.50;;;;;;6174739;28;20031;-84
2021/10/16 10:10:27;;;;;;;35.97;8.63;;;;;;;;;;6173171;28;20035;-88
2021/10/16 10:13:28;;;;;;;56.90;7.35;;;21.50;75.30;;;;;;6168606;28;20078;-89
2021/10/16 10:16:32;;;;;;;7.35;4.78;;;22.30;77.90;;;;;;6146360;28;20046;-85
2021/10/16 10:19:41;;;;;;;17.70;11.07;;;21.40;77.30;;;;;;6149097;28;20063;-85
2021/10/16 10:22:42;;;;;;;11.98;6.97;;;21.50;77.20;;;;;;6185317;28;20078;-86
2021/10/16 10:25:42;;;;;;;10.38;7.22;;;21.40;77.00;;;;;;6163457;28;20458;-85
2021/10/16 10:28:53;;;;;;;12.70;8.55;;;21.00;96.90;;;;;;6160448;28;20062;-82
2021/10/16 10:31:59;;;;;;;10.55;8.15;;;21.00;96.50;;;;;;6143364;28;20035;-83
2021/10/16 10:35:04;;;;;;;7.45;5.30;;;20.90;85.00;;;;;;6145138;28;20031;-84
2021/10/16 10:38:36;;;;;;;6.47;5.35;;;21.00;79.20;;;;;;6160587;28;20111;-84
2021/10/16 10:41:36;;;;;;;9.30;5.95;;;20.90;96.70;;;;;;6166635;28;20025;-85
2021/10/16 10:44:40;;;;;;;8.52;6.43;;;20.60;88.10;;;;;;6187604;28;20066;-84
2021/10/16 10:47:41;;;;;;;6.85;5.43;;;;;;;;;;6174607;28;20109;-85
2021/10/16 10:50:42;;;;;;;7.82;5.38;;;20.90;85.00;;;;;;6190213;28;20043;-86
2021/10/16 10:53:42;;;;;;;9.80;8.05;;;20.80;81.50;;;;;;6174386;28;20034;-83
2021/10/16 10:56:51;;;;;;;8.15;5.55;;;20.70;80.60;;;;;;6190494;28;20090;-83
2021/10/16 10:59:58;;;;;;;8.07;5.72;;;20.60;80.80;;;;;;6174103;28;20369;-87
2021/10/16 11:02:59;;;;;;;6.40;4.88;;;20.60;80.90;;;;;;6173921;28;20019;-86
2021/10/16 11:06:08;;;;;;;6.93;4.38;;;20.40;81.00;;;;;;6190722;28;20031;-86
2021/10/16 11:09:16;;;;;;;7.82;4.93;;;20.30;81.60;;;;;;6173825;28;20038;-83
2021/10/16 11:12:39;;;;;;;7.60;5.10;;;20.20;82.20;;;;;;6174106;28;20039;-85
2021/10/16 11:15:40;;;;;;;7.70;4.93;;;19.90;82.10;;;;;;6189340;28;20050;-88
2021/10/16 11:18:41;;;;;;;5.78;4.93;;;19.90;83.90;;;;;;6173283;28;20453;-88
2021/10/16 11:21:41;;;;;;;10.45;4.95;;;19.90;85.10;;;;;;6173768;28;20038;-85
2021/10/16 11:24:42;;;;;;;9.15;5.45;;;19.70;85.10;;;;;;6173200;28;20027;-85
2021/10/16 11:27:57;;;;;;;6.57;4.60;;;19.90;85.30;;;;;;6171644;28;20031;-85
2021/10/16 11:30:58;;;;;;;5.20;4.47;;;19.90;85.20;;;;;;6169755;28;20038;-84
2021/10/16 11:34:07;;;;;;;5.60;4.60;;;20.00;84.50;;;;;;6173034;28;20449;-85
2021/10/16 11:37:07;;;;;;;15.35;6.60;;;20.00;85.10;;;;;;6172365;28;20425;-83
2021/10/16 11:40:11;;;;;;;8.43;5.90;;;19.90;86.50;;;;;;6172270;28;20034;-88
2021/10/16 11:43:12;;;;;;;7.28;6.15;;;19.60;86.30;;;;;;6188981;28;20062;-83
2021/10/16 11:46:17;;;;;;;8.23;6.38;;;19.50;86.60;;;;;;6197519;28;20088;-84
2021/10/16 11:49:22;;;;;;;7.10;5.70;;;19.40;96.10;;;;;;6164669;28;20026;-88
2021/10/16 11:52:23;;;;;;;7.85;6.28;;;19.50;96.50;;;;;;6195368;28;20026;-92
2021/10/16 11:55:24;;;;;;;11.43;6.30;;;19.40;90.60;;;;;;6163638;28;20066;-84
2021/10/16 11:58:26;;;;;;;7.93;6.63;;;19.30;90.00;;;;;;6179167;28;20042;-86
2021/10/16 12:01:30;;;;;;;;;;;19.10;94.90;;;;;;6180811;28;20369;-88
2021/10/16 12:04:31;;;;;;;9.57;7.43;;;19.10;90.20;;;;;;6179778;28;19913;-87
2021/10/16 12:07:31;;;;;;;11.10;8.27;;;19.00;91.00;;;;;;6178808;28;20458;-83
2021/10/16 12:10:35;;;;;;;11.75;7.78;;;;;;;;;;6179938;28;20023;-83
2021/10/16 12:13:39;;;;;;;17.10;9.18;;;18.60;99.90;;;;;;6179364;28;20025;-84
2021/10/16 12:16:44;;;;;;;10.10;8.00;;;18.60;99.90;;;;;;6178296;28;20034;-85
2021/10/16 12:19:56;;;;;;;11.40;9.55;;;18.50;96.40;;;;;;6162831;28;20022;-81
2021/10/16 12:22:57;;;;;;;17.80;10.57;;;18.20;98.40;;;;;;6176780;28;20022;-85
2021/10/16 12:25:58;;;;;;;12.23;9.15;;;18.10;98.60;;;;;;6177705;28;20120;-85
2021/10/16 12:29:00;;;;;;;18.27;10.73;;;17.90;93.90;;;;;;6162243;28;20022;-85
2021/10/16 12:32:01;;;;;;;11.63;10.10;;;17.90;94.30;;;;;;6195085;28;20092;-85
2021/10/16 12:35:04;;;;;;;12.63;9.82;;;;;;;;;;6194108;28;20052;-84
2021/10/16 12:38:04;;;;;;;12.75;9.95;;;17.70;93.50;;;;;;6177614;28;20034;-84
2021/10/16 12:41:20;;;;;;;14.20;10.57;;;17.50;95.30;;;;;;6177567;28;20031;-87
2021/10/16 12:44:28;;;;;;;17.20;11.20;;;17.20;95.00;;;;;;6191359;28;20070;-85
2021/10/16 12:47:29;;;;;;;13.95;10.88;;;16.90;99.90;;;;;;6177718;28;20389;-86
2021/10/16 12:50:54;;;;;;;14.50;10.63;;;17.10;99.00;;;;;;6177280;28;20018;-85
2021/10/16 12:54:01;;;;;;;15.68;11.43;;;17.30;96.90;;;;;;6176133;28;20022;-84
2021/10/16 12:57:09;;;;;;;14.00;11.32;;;16.90;97.40;;;;;;6193486;28;20181;-84
2021/10/16 13:00:10;;;;;;;17.38;11.98;;;16.90;96.40;;;;;;6176502;28;20404;-83
2021/10/16 13:03:14;;;;;;;12.35;10.73;;;16.90;98.10;;;;;;6176108;28;20067;-83
2021/10/16 13:06:14;;;;;;;16.15;10.95;;;16.80;97.80;;;;;;6192511;28;20109;-83
2021/10/16 13:09:15;;;;;;;22.73;11.10;;;16.70;98.70;;;;;;6192235;28;20077;-85
2021/10/16 13:12:16;;;;;;;17.95;11.90;;;16.80;99.90;;;;;;6192657;28;20034;-83
2021/10/16 13:15:17;;;;;;;13.07;10.52;;;;;;;;;;6192829;28;20030;-84
2021/10/16 13:18:17;;;;;;;16.73;10.60;;;16.80;98.50;;;;;;6175971;28;20018;-81
2021/10/16 13:21:18;;;;;;;13.80;10.38;;;16.70;99.30;;;;;;6176559;28;20031;-81
2021/10/16 13:24:18;;;;;;;15.85;11.00;;;16.60;99.80;;;;;;6191780;28;20022;-81
2021/10/16 13:27:19;;;;;;;16.08;11.77;;;16.50;99.80;;;;;;6194474;28;20076;-81
2021/10/16 13:30:20;;;;;;;22.05;11.27;;;16.50;99.90;;;;;;6193250;28;20446;-80
2021/10/16 13:33:22;;;;;;;24.73;10.82;;;16.50;99.90;;;;;;6176544;28;20033;-81
2021/10/16 13:36:23;;;;;;;;;;;16.40;99.90;;;;;;6193590;28;20726;-82
2021/10/16 13:39:23;;;;;;;18.58;10.85;;;16.40;99.90;;;;;;6176720;28;19901;-82
2021/10/16 13:42:24;;;;;;;13.98;11.43;;;16.10;99.90;;;;;;6192812;28;20034;-81
2021/10/16 13:45:24;;;;;;;12.00;10.70;;;16.10;99.90;;;;;;6168933;28;20085;-81
2021/10/16 13:48:25;;;;;;;15.57;12.18;;;16.00;99.90;;;;;;6184820;28;20105;-82
2021/10/16 13:51:26;;;;;;;17.95;10.90;;;16.00;99.90;;;;;;6185163;28;20038;-82
2021/10/16 13:54:27;;;;;;;13.77;11.55;;;16.00;99.90;;;;;;6187439;28;20031;-83
2021/10/16 13:57:27;;;;;;;14.57;11.80;;;16.10;99.90;;;;;;6190095;28;20031;-82
2021/10/16 14:00:29;;;;;;;13.90;11.45;;;16.10;99.90;;;;;;6189470;28;20062;-82
2021/10/16 14:03:29;;;;;;;13.20;11.13;;;15.70;99.90;;;;;;6188981;28;20038;-83
2021/10/16 14:06:30;;;;;;;13.85;11.00;;;15.70;99.90;;;;;;6175175;28;20039;-82
2021/10/16 14:09:30;;;;;;;15.05;10.38;;;15.80;99.90;;;;;;6189288;28;20047;-81
2021/10/16 14:12:32;;;;;;;13.60;11.93;;;15.60;99.90;;;;;;6172552;28;20388;-82
2021/10/16 14:15:33;;;;;;;15.25;11.80;;;15.40;99.90;;;;;;6188484;28;20769;-82
2021/10/16 14:18:33;;;;;;;13.07;11.13;;;15.50;99.90;;;;;;6189932;28;20043;-79
2021/10/16 14:21:34;;;;;;;15.73;11.95;;;15.40;99.90;;;;;;6189303;28;20031;-79
2021/10/16 14:24:35;;;;;;;14.98;11.15;;;15.30;99.90;;;;;;6172424;28;20110;-81
2021/10/16 14:27:37;;;;;;;15.98;12.05;;;15.20;99.90;;;;;;6189386;28;20066;-82
2021/10/16 14:30:37;;;;;;;17.13;12.25;;;15.20;99.90;;;;;;6173346;28;20126;-80
2021/10/16 14:33:38;;;;;;;12.85;11.48;;;15.20;99.90;;;;;;6188440;28;20093;-81
2021/10/16 14:36:38;;;;;;;12.88;11.35;;;15.20;99.90;;;;;;6187274;28;20081;-80
2021/10/16 14:39:39;;;;;;;16.23;11.30;;;15.30;99.90;;;;;;6188137;28;20038;-81
2021/10/16 14:42:40;;;;;;;13.30;10.82;;;15.30;99.90;;;;;;6189299;28;20023;-81
2021/10/16 14:45:40;;;;;;;14.55;11.13;;;15.50;99.90;;;;;;6188717;28;20062;-81
2021/10/16 14:48:42;;;;;;;12.25;10.95;;;15.30;99.90;;;;;;6188759;28;20109;-81
2021/10/16 14:51:43;;;;;;;17.35;11.68;;;15.30;99.90;;;;;;6188931;28;20520;-81
2021/10/16 14:54:44;;;;;;;15.65;11.43;;;15.30;99.90;;;;;;6189136;28;20035;-81
2021/10/16 14:57:44;;;;;;;12.95;11.18;;;15.20;99.90;;;;;;6188793;28;20035;-80
2021/10/16 15:00:45;;;;;;;16.10;12.45;;;15.10;99.90;;;;;;6189042;28;20023;-81
2021/10/16 15:03:47;;;;;;;15.25;11.75;;;;;;;;;;6188144;28;20030;-81
2021/10/16 15:06:48;;;;;;;15.73;11.98;;;15.10;99.90;;;;;;6187466;28;20045;-82
2021/10/16 15:09:48;;;;;;;15.50;12.52;;;14.90;99.90;;;;;;6172016;28;20035;-81
2021/10/16 15:12:49;;;;;;;15.15;11.70;;;14.90;99.90;;;;;;6188120;28;20512;-81
2021/10/16 15:15:49;;;;;;;16.17;12.05;;;14.50;99.90;;;;;;6187063;28;20039;-81
2021/10/16 15:18:50;;;;;;;15.63;12.05;;;14.60;99.90;;;;;;6173453;28;20539;-81
2021/10/16 15:21:52;;;;;;;15.55;11.95;;;14.60;99.90;;;;;;6188430;28;20512;-82
2021/10/16 15:24:52;;;;;;;14.30;12.47;;;14.40;99.90;;;;;;6188225;28;20485;-82
2021/10/16 15:27:53;;;;;;;16.33;12.98;;;;;;;;;;6188320;28;20262;-80
2021/10/16 15:30:54;;;;;;;17.10;13.52;;;;;;;;;;6187406;28;20485;-82
2021/10/16 15:33:55;;;;;;;17.67;14.32;;;;;;;;;;6172524;28;20086;-82
2021/10/16 15:36:56;;;;;;;19.88;14.20;;;;;;;;;;6171668;28;20035;-81
2021/10/16 15:39:57;;;;;;;19.48;15.15;;;14.00;99.90;;;;;;6187836;28;20034;-80
2021/10/16 15:42:58;;;;;;;20.67;14.95;;;;;;;;;;6171565;28;20038;-81
2021/10/16 15:45:58;;;;;;;19.67;16.20;;;14.00;99.90;;;;;;6173353;28;20109;-80
2021/10/16 15:48:59;;;;;;;21.67;15.60;;;;;;;;;;6177608;28;20110;-80
2021/10/16 15:52:00;;;;;;;22.55;16.60;;;13.60;99.90;;;;;;6159068;28;20073;-80
2021/10/16 15:55:01;;;;;;;19.98;15.52;;;13.60;99.90;;;;;;6167871;28;20031;-78
2021/10/16 15:58:15;;;;;;;21.23;16.75;;;13.50;99.90;;;;;;6172871;28;20047;-79
2021/10/16 16:01:16;;;;;;;23.67;17.48;;;;;;;;;;6161149;28;20031;-78
2021/10/16 16:04:16;;;;;;;19.15;16.15;;;13.10;99.90;;;;;;6170704;28;20101;-78